createdAt,value
2019-03-04T00:02:11.038Z,10.30
2019-03-04T00:04:40.254Z,10.20
2019-03-04T00:07:09.595Z,10.30
2019-03-04T00:09:40.591Z,10.30
2019-03-04T00:12:11.638Z,10.30
2019-03-04T00:14:43.887Z,10.30
2019-03-04T00:17:12.941Z,10.30
2019-03-04T00:19:43.488Z,10.30
2019-03-04T00:22:12.544Z,10.30
2019-03-04T00:24:43.058Z,10.30
2019-03-04T00:27:13.704Z,10.30
2019-03-04T00:29:43.111Z,10.30
2019-03-04T00:32:12.405Z,10.20
2019-03-04T00:34:43.233Z,10.20
2019-03-04T00:37:12.562Z,10.20
2019-03-04T00:39:43.214Z,10.20
2019-03-04T00:42:12.672Z,10.20
2019-03-04T00:44:43.178Z,10.20
2019-03-04T00:47:12.591Z,10.20
2019-03-04T00:49:43.758Z,10.20
2019-03-04T00:52:16.169Z,10.20
2019-03-04T00:54:47.370Z,10.10
2019-03-04T00:57:18.249Z,10.20
2019-03-04T00:59:49.047Z,10.20
2019-03-04T01:02:20.061Z,10.10
2019-03-04T01:04:49.438Z,10.10
2019-03-04T01:07:19.851Z,10.10
2019-03-04T01:09:49.151Z,10.10
2019-03-04T01:12:18.710Z,10.10
2019-03-04T01:14:48.132Z,10.10
2019-03-04T01:17:17.420Z,10.10
2019-03-04T01:19:49.699Z,10.10
2019-03-04T01:22:21.362Z,10.10
2019-03-04T01:24:50.586Z,10.20
2019-03-04T01:27:19.895Z,10.20
2019-03-04T01:29:49.195Z,10.20
2019-03-04T01:32:19.673Z,10.30
2019-03-04T01:34:48.987Z,10.30
2019-03-04T01:37:21.423Z,10.30
2019-03-04T01:39:50.396Z,10.30
2019-03-04T01:42:19.803Z,10.30
2019-03-04T01:44:49.261Z,10.30
2019-03-04T01:47:18.549Z,10.30
2019-03-04T01:49:48.177Z,10.20
2019-03-04T01:52:17.398Z,10.20
2019-03-04T01:54:46.707Z,10.20
2019-03-04T01:57:16.013Z,10.10
2019-03-04T01:59:47.325Z,10.10
2019-03-04T02:02:17.607Z,10.10
2019-03-04T02:04:47.113Z,10.00
2019-03-04T02:07:16.622Z,10.00
2019-03-04T02:09:46.809Z,10.00
2019-03-04T02:12:19.621Z,10.00
2019-03-04T02:14:48.951Z,9.90
2019-03-04T02:17:18.157Z,9.90
2019-03-04T02:19:50.060Z,9.80
2019-03-04T02:22:22.357Z,9.80
2019-03-04T02:24:51.735Z,9.80
2019-03-04T02:27:22.308Z,9.70
2019-03-04T02:29:51.993Z,9.70
2019-03-04T02:32:22.386Z,9.70
2019-03-04T02:34:51.857Z,9.70
2019-03-04T02:37:21.330Z,9.70
2019-03-04T02:39:52.030Z,9.70
2019-03-04T02:42:23.083Z,9.70
2019-03-04T02:44:52.528Z,9.70
2019-03-04T02:47:21.937Z,9.70
2019-03-04T02:49:52.406Z,9.70
2019-03-04T02:52:23.508Z,9.70
2019-03-04T02:54:52.911Z,9.70
2019-03-04T02:57:22.226Z,9.60
2019-03-04T02:59:51.643Z,9.60
2019-03-04T03:02:22.214Z,9.60
2019-03-04T03:04:52.629Z,9.60
2019-03-04T03:07:23.989Z,9.60
2019-03-04T03:09:55.247Z,9.60
2019-03-04T03:12:26.132Z,9.50
2019-03-04T03:14:55.478Z,9.50
2019-03-04T03:17:29.211Z,9.50
2019-03-04T03:19:58.636Z,9.50
2019-03-04T03:22:29.665Z,9.40
2019-03-04T03:24:59.026Z,9.40
2019-03-04T03:27:28.419Z,9.40
2019-03-04T03:29:58.776Z,9.50
2019-03-04T03:32:31.345Z,9.50
2019-03-04T03:35:07.707Z,9.50
2019-03-04T03:37:36.319Z,9.50
2019-03-04T03:40:10.845Z,9.50
2019-03-04T03:42:41.759Z,9.50
2019-03-04T03:45:12.698Z,9.50
2019-03-04T03:47:43.630Z,9.50
2019-03-04T03:50:12.999Z,9.50
2019-03-04T03:52:42.431Z,9.50
2019-03-04T03:55:14.681Z,9.50
2019-03-04T03:57:43.999Z,9.50
2019-03-04T04:00:15.196Z,9.60
2019-03-04T04:02:44.621Z,9.50
2019-03-04T04:05:15.021Z,9.60
2019-03-04T04:07:45.825Z,9.50
2019-03-04T04:10:16.670Z,9.50
2019-03-04T04:12:47.808Z,9.50
2019-03-04T04:15:18.986Z,9.50
2019-03-04T04:17:50.013Z,9.40
2019-03-04T04:20:19.428Z,9.40
2019-03-04T04:22:50.506Z,9.40
2019-03-04T04:25:19.813Z,9.40
2019-03-04T04:27:50.206Z,9.30
2019-03-04T04:30:21.122Z,9.30
2019-03-04T04:32:50.385Z,9.30
2019-03-04T04:35:21.289Z,9.30
2019-03-04T04:37:50.421Z,9.30
2019-03-04T04:40:21.240Z,9.30
2019-03-04T04:42:50.776Z,9.30
2019-03-04T04:45:20.154Z,9.30
2019-03-04T04:47:52.252Z,9.30
2019-03-04T04:50:21.843Z,9.40
2019-03-04T04:52:51.167Z,9.40
2019-03-04T04:55:21.639Z,9.40
2019-03-04T04:57:50.934Z,9.40
2019-03-04T05:00:21.335Z,9.40
2019-03-04T05:02:50.746Z,9.40
2019-03-04T05:05:23.707Z,9.50
2019-03-04T05:07:54.545Z,9.50
2019-03-04T05:10:24.062Z,9.50
2019-03-04T05:12:55.323Z,9.50
2019-03-04T05:15:24.635Z,9.60
2019-03-04T05:17:53.978Z,9.60
2019-03-04T05:20:24.538Z,9.60
2019-03-04T05:22:53.757Z,9.60
2019-03-04T05:25:24.439Z,9.60
2019-03-04T05:27:59.131Z,9.60
2019-03-04T05:30:31.022Z,9.60
2019-03-04T05:33:00.349Z,9.60
2019-03-04T05:35:31.552Z,9.60
2019-03-04T05:38:00.861Z,9.60
2019-03-04T05:40:31.241Z,9.60
2019-03-04T05:43:01.787Z,9.60
2019-03-04T05:45:31.112Z,9.60
2019-03-04T05:48:00.407Z,9.60
2019-03-04T05:50:31.531Z,9.60
2019-03-04T05:53:02.682Z,9.60
2019-03-04T05:55:31.955Z,9.60
2019-03-04T05:58:02.972Z,9.60
2019-03-04T06:00:39.013Z,9.60
2019-03-04T06:03:10.072Z,9.60
2019-03-04T06:05:42.305Z,9.60
2019-03-04T06:08:12.610Z,9.60
2019-03-04T06:10:43.750Z,9.60
2019-03-04T06:13:13.060Z,9.70
2019-03-04T06:15:45.873Z,9.70
2019-03-04T06:18:15.350Z,9.70
2019-03-04T06:20:44.994Z,9.70
2019-03-04T06:23:14.213Z,9.80
2019-03-04T06:25:43.638Z,9.80
2019-03-04T06:28:12.961Z,9.80
2019-03-04T06:30:43.774Z,9.80
2019-03-04T06:33:14.786Z,9.90
2019-03-04T06:35:45.652Z,9.90
2019-03-04T06:38:16.830Z,9.90
2019-03-04T06:40:47.180Z,9.90
2019-03-04T06:43:16.644Z,10.00
2019-03-04T06:45:47.833Z,10.00
2019-03-04T06:48:17.251Z,10.00
2019-03-04T06:50:55.318Z,10.00
2019-03-04T06:53:39.286Z,10.00
2019-03-04T06:56:19.600Z,10.00
2019-03-04T06:58:51.938Z,10.10
2019-03-04T07:01:37.963Z,10.10
2019-03-04T07:04:21.261Z,10.10
2019-03-04T07:06:50.396Z,10.10
2019-03-04T07:09:20.874Z,10.10
2019-03-04T07:11:53.423Z,10.10
2019-03-04T07:14:22.914Z,10.10
2019-03-04T07:16:53.193Z,10.20
2019-03-04T07:19:28.503Z,10.20
2019-03-04T07:21:57.962Z,10.20
2019-03-04T07:24:27.448Z,10.30
2019-03-04T07:26:57.031Z,10.30
2019-03-04T07:29:28.210Z,10.40
2019-03-04T07:31:59.431Z,10.40
2019-03-04T07:34:31.239Z,10.40
2019-03-04T07:37:02.657Z,10.40
2019-03-04T07:39:33.037Z,10.50
2019-03-04T07:42:02.693Z,10.50
2019-03-04T07:44:33.427Z,10.60
2019-03-04T07:47:04.305Z,10.60
2019-03-04T07:49:35.504Z,10.70
2019-03-04T07:52:04.904Z,10.70
2019-03-04T07:54:36.195Z,10.70
2019-03-04T07:57:05.715Z,10.80
2019-03-04T07:59:36.186Z,10.80
2019-03-04T08:02:06.955Z,10.90
2019-03-04T08:04:37.784Z,10.90
2019-03-04T08:07:35.966Z,11.00
2019-03-04T08:10:38.665Z,11.00
2019-03-04T08:13:11.591Z,11.00
2019-03-04T08:15:46.359Z,11.10
2019-03-04T08:18:19.359Z,11.10
2019-03-04T08:20:52.116Z,11.10
2019-03-04T08:23:21.506Z,11.10
2019-03-04T08:25:50.917Z,11.20
2019-03-04T08:28:23.651Z,11.20
2019-03-04T08:30:52.866Z,11.30
2019-03-04T08:33:25.477Z,11.40
2019-03-04T08:35:56.106Z,11.40
2019-03-04T08:38:29.793Z,11.40
2019-03-04T08:40:59.819Z,11.60
2019-03-04T08:43:32.416Z,11.70
2019-03-04T08:46:02.109Z,11.90
2019-03-04T08:48:35.369Z,12.00
2019-03-04T08:51:06.401Z,12.20
2019-03-04T08:53:35.822Z,12.30
2019-03-04T08:56:05.414Z,12.40
2019-03-04T08:58:34.775Z,12.40
2019-03-04T09:01:04.133Z,12.30
2019-03-04T09:03:35.011Z,12.30
2019-03-04T09:06:04.442Z,12.40
2019-03-04T09:08:33.754Z,12.40
2019-03-04T09:11:10.093Z,12.40
2019-03-04T09:13:40.450Z,12.40
2019-03-04T09:16:09.755Z,12.40
2019-03-04T09:18:39.289Z,12.40
2019-03-04T09:21:11.288Z,12.40
2019-03-04T09:23:40.683Z,12.40
2019-03-04T09:26:11.512Z,12.40
2019-03-04T09:28:42.369Z,12.40
2019-03-04T09:31:11.682Z,12.50
2019-03-04T09:33:42.209Z,12.50
2019-03-04T09:36:11.639Z,12.50
2019-03-04T09:38:43.910Z,12.60
2019-03-04T09:41:14.903Z,12.60
2019-03-04T09:43:44.324Z,12.60
2019-03-04T09:46:13.776Z,12.60
2019-03-04T09:48:43.207Z,12.60
2019-03-04T09:51:24.076Z,12.60
2019-03-04T09:53:47.685Z,12.60
2019-03-04T09:56:19.160Z,12.60
2019-03-04T09:58:48.454Z,12.60
2019-03-04T10:01:34.352Z,12.60
2019-03-04T10:04:42.876Z,12.60
2019-03-04T10:07:51.228Z,12.60
2019-03-04T10:11:01.591Z,12.70
2019-03-04T10:14:11.315Z,12.70
2019-03-04T10:17:38.767Z,12.80
2019-03-04T10:20:48.277Z,12.90
2019-03-04T10:23:45.670Z,13.00
2019-03-04T10:27:05.322Z,13.00
2019-03-04T10:30:24.311Z,13.10
2019-03-04T10:33:35.203Z,13.20
2019-03-04T10:36:39.694Z,13.30
2019-03-04T10:39:48.092Z,13.30
2019-03-04T10:42:45.427Z,13.60
2019-03-04T10:45:36.521Z,14.00
2019-03-04T10:48:08.831Z,14.40
2019-03-04T10:50:39.634Z,14.70
2019-03-04T10:53:10.780Z,14.70
2019-03-04T10:55:42.292Z,14.70
2019-03-04T10:58:12.284Z,14.70
2019-03-04T11:00:43.388Z,14.70
2019-03-04T11:03:15.829Z,14.60
2019-03-04T11:05:46.258Z,14.60
2019-03-04T11:08:15.621Z,14.60
2019-03-04T11:10:46.314Z,14.70
2019-03-04T11:13:17.201Z,14.70
2019-03-04T11:15:48.133Z,14.70
2019-03-04T11:18:17.732Z,14.70
2019-03-04T11:20:49.015Z,14.80
2019-03-04T11:23:18.597Z,14.80
2019-03-04T13:03:54.100Z,15.00
2019-03-04T13:06:24.402Z,10.90
2019-03-04T13:08:54.857Z,11.10
2019-03-04T13:11:26.178Z,11.10
2019-03-04T13:13:55.838Z,11.10
2019-03-04T13:16:25.211Z,11.20
2019-03-04T13:18:58.576Z,11.40
2019-03-04T13:21:32.769Z,11.50
2019-03-04T13:24:02.131Z,11.70
2019-03-04T13:26:31.490Z,11.70
2019-03-04T13:29:00.594Z,11.70
2019-03-04T13:31:35.049Z,11.80
2019-03-04T13:34:05.066Z,12.60
2019-03-04T13:36:34.836Z,13.40
2019-03-04T13:39:08.195Z,14.00
2019-03-04T13:41:38.451Z,14.50
2019-03-04T13:44:09.164Z,15.10
2019-03-04T13:46:38.623Z,15.20
2019-03-04T13:49:07.989Z,15.50
2019-03-04T13:51:40.291Z,15.50
2019-03-04T13:54:14.827Z,15.40
2019-03-04T13:56:44.177Z,15.20
2019-03-04T13:59:13.507Z,15.80
2019-03-04T14:01:43.118Z,16.40
2019-03-04T14:04:12.761Z,16.30
2019-03-04T14:06:42.136Z,16.20
2019-03-04T14:09:13.451Z,16.10
2019-03-04T14:11:43.669Z,15.70
2019-03-04T14:14:13.505Z,15.90
2019-03-04T14:16:42.998Z,15.60
2019-03-04T14:19:12.588Z,15.70
2019-03-04T14:21:42.097Z,15.40
2019-03-04T14:24:11.463Z,14.60
2019-03-04T14:26:41.145Z,14.30
2019-03-04T14:29:10.753Z,14.20
2019-03-04T14:31:41.649Z,14.10
2019-03-04T14:34:10.969Z,14.00
2019-03-04T14:36:42.340Z,13.90
2019-03-04T14:39:15.806Z,13.90
2019-03-04T14:41:45.288Z,13.80
2019-03-04T14:44:14.756Z,13.70
2019-03-04T14:46:44.203Z,13.60
2019-03-04T14:49:13.577Z,13.50
2019-03-04T14:51:45.125Z,13.50
2019-03-04T14:54:15.777Z,13.40
2019-03-04T14:56:47.346Z,13.40
2019-03-04T14:59:16.228Z,13.50
2019-03-04T15:01:47.416Z,13.50
2019-03-04T15:04:17.895Z,13.50
2019-03-04T15:06:52.239Z,13.40
2019-03-04T15:09:21.650Z,13.40
2019-03-04T15:11:51.320Z,13.30
2019-03-04T15:14:20.817Z,13.30
2019-03-04T15:16:50.121Z,13.30
2019-03-04T15:19:22.035Z,13.30
2019-03-04T15:21:52.641Z,13.30
2019-03-04T15:24:23.390Z,13.40
2019-03-04T15:26:55.063Z,13.50
2019-03-04T15:29:24.705Z,13.50
2019-03-04T15:31:54.101Z,13.40
2019-03-04T15:34:23.602Z,13.30
2019-03-04T15:36:53.010Z,13.30
2019-03-04T15:39:26.059Z,13.30
2019-03-04T15:41:56.780Z,13.30
2019-03-04T15:44:26.133Z,13.30
2019-03-04T15:46:56.433Z,13.20
2019-03-04T15:49:25.747Z,13.20
2019-03-04T15:51:56.153Z,13.10
2019-03-04T15:54:25.536Z,13.10
2019-03-04T15:56:55.989Z,13.10
2019-03-04T15:59:25.606Z,13.00
2019-03-04T16:01:55.011Z,13.00
2019-03-04T16:04:24.752Z,13.00
2019-03-04T16:16:53.081Z,13.00
2019-03-04T16:19:23.676Z,8.20
2019-03-04T16:21:53.203Z,7.20
2019-03-04T16:24:22.797Z,6.80
2019-03-04T16:26:52.100Z,6.60
2019-03-04T16:29:21.396Z,6.60
2019-03-04T16:31:50.747Z,6.60
2019-03-04T16:34:21.372Z,6.60
2019-03-04T16:36:52.177Z,6.50
2019-03-04T16:39:21.866Z,6.50
2019-03-04T16:41:51.173Z,6.50
2019-03-04T16:44:22.397Z,6.50
2019-03-04T16:46:51.953Z,6.40
2019-03-04T16:49:23.332Z,6.20
2019-03-04T16:51:54.388Z,6.40
2019-03-04T16:54:26.596Z,6.30
2019-03-04T16:56:55.981Z,6.30
2019-03-04T16:59:27.801Z,6.20
2019-03-04T17:01:59.444Z,6.20
2019-03-04T17:04:28.821Z,6.20
2019-03-04T17:07:01.317Z,6.10
2019-03-04T17:09:30.725Z,6.20
2019-03-04T17:12:03.679Z,6.20
2019-03-04T17:14:33.296Z,6.20
2019-03-04T17:17:07.086Z,6.20
2019-03-04T17:19:36.490Z,6.20
2019-03-04T17:22:11.727Z,6.20
2019-03-04T17:24:36.912Z,6.30
2019-03-04T17:27:06.716Z,6.30
2019-03-04T17:29:36.253Z,6.30
2019-03-04T17:32:08.328Z,6.30
2019-03-04T17:34:37.823Z,6.40
2019-03-04T17:37:11.100Z,6.40
2019-03-04T17:39:45.005Z,6.40
2019-03-04T17:42:14.562Z,6.50
2019-03-04T17:44:43.959Z,6.60
2019-03-04T17:47:13.405Z,6.60
2019-03-04T17:49:42.856Z,6.70
2019-03-04T17:52:13.250Z,6.60
2019-03-04T17:54:42.752Z,6.70
2019-03-04T17:57:13.474Z,6.70
2019-03-04T17:59:43.099Z,6.70
2019-03-04T18:02:16.419Z,6.80
2019-03-04T18:04:46.748Z,6.80
2019-03-04T18:07:16.388Z,6.80
2019-03-04T18:09:45.806Z,6.80
2019-03-04T18:12:16.379Z,6.80
2019-03-04T18:14:48.816Z,6.80
2019-03-04T18:17:18.125Z,6.80
2019-03-04T18:19:47.701Z,6.80
2019-03-04T18:22:20.453Z,6.80
2019-03-04T18:24:52.129Z,6.90
2019-03-04T18:27:34.531Z,6.90
2019-03-04T18:30:33.133Z,7.00
2019-03-04T18:33:56.089Z,7.00
2019-03-04T18:37:06.296Z,7.00
2019-03-04T18:40:20.320Z,7.00
2019-03-04T18:43:15.640Z,7.00
2019-03-04T18:46:29.061Z,7.00
2019-03-04T18:49:03.203Z,7.00
2019-03-04T18:51:33.790Z,7.00
2019-03-04T18:54:17.469Z,7.00
2019-03-04T18:56:48.663Z,7.00
2019-03-04T18:59:17.894Z,7.10
2019-03-04T19:01:47.594Z,7.10
2019-03-04T19:04:16.971Z,7.20
2019-03-04T19:06:46.660Z,7.20
2019-03-04T19:09:17.564Z,7.20
2019-03-04T19:11:48.914Z,7.20
2019-03-04T19:14:18.325Z,7.30
2019-03-04T19:16:47.740Z,7.30
2019-03-04T19:19:17.320Z,7.30
2019-03-04T19:21:46.898Z,7.30
2019-03-04T19:24:16.286Z,7.30
2019-03-04T19:26:45.597Z,7.30
2019-03-04T19:29:14.848Z,7.30
2019-03-04T19:31:44.570Z,7.40
2019-03-04T19:34:14.320Z,7.40
2019-03-04T19:36:43.816Z,7.40
2019-03-04T19:39:13.181Z,7.50
2019-03-04T19:41:43.429Z,7.50
2019-03-04T19:44:14.041Z,7.60
2019-03-04T19:46:43.403Z,7.60
2019-03-04T19:49:12.878Z,7.70
2019-03-04T19:51:42.126Z,7.70
2019-03-04T19:54:11.614Z,7.70
2019-03-04T19:56:41.018Z,7.70
2019-03-04T19:59:10.500Z,7.80
2019-03-04T20:01:39.748Z,7.70
2019-03-04T20:04:09.068Z,7.70
2019-03-04T20:06:38.541Z,7.70
2019-03-04T20:09:09.091Z,7.70
2019-03-04T20:11:38.442Z,7.70
2019-03-04T20:14:09.440Z,7.70
2019-03-04T20:16:40.528Z,7.70
2019-03-04T20:19:10.199Z,7.70
2019-03-04T20:21:40.718Z,7.80
2019-03-04T20:24:10.026Z,7.80
2019-03-04T20:26:39.534Z,7.80
2019-03-04T20:29:10.385Z,7.80
2019-03-04T20:31:39.755Z,7.90
2019-03-04T20:34:09.171Z,7.90
2019-03-04T20:36:40.460Z,7.90
2019-03-04T20:39:11.572Z,7.80
2019-03-04T20:41:42.589Z,7.80
2019-03-04T20:44:14.230Z,7.90
2019-03-04T20:46:46.519Z,7.80
2019-03-04T20:49:15.989Z,7.80
2019-03-04T20:51:45.201Z,7.80
2019-03-04T20:54:14.708Z,7.80
2019-03-04T20:56:45.465Z,7.80
2019-03-04T20:59:15.949Z,7.90
2019-03-04T21:01:45.597Z,7.90
2019-03-04T21:04:14.977Z,8.00
2019-03-04T21:06:47.080Z,7.90
2019-03-04T21:09:18.195Z,8.00
2019-03-04T21:11:47.575Z,7.90
2019-03-04T21:14:18.631Z,7.90
2019-03-04T21:16:48.005Z,8.00
2019-03-04T21:19:17.355Z,7.90
2019-03-04T21:21:48.737Z,7.90
2019-03-04T21:24:18.019Z,7.90
2019-03-04T21:26:49.995Z,7.90
2019-03-04T21:29:45.713Z,7.90
2019-03-04T21:32:32.274Z,7.80
2019-03-04T21:35:34.612Z,7.70
2019-03-04T21:38:03.952Z,7.60
2019-03-04T21:40:47.880Z,7.60
2019-03-04T21:43:24.334Z,7.50
2019-03-04T21:46:35.751Z,7.50
2019-03-04T21:49:09.561Z,7.40
2019-03-04T21:52:32.814Z,7.40
2019-03-04T21:55:03.995Z,7.30
2019-03-04T21:57:55.768Z,7.30
2019-03-04T22:00:37.172Z,7.20
2019-03-04T22:03:36.204Z,7.20
2019-03-04T22:06:10.464Z,7.20
2019-03-04T22:08:40.404Z,7.10
2019-03-04T22:11:10.720Z,7.20
2019-03-04T22:13:40.931Z,7.10
2019-03-04T22:16:10.482Z,7.10
2019-03-04T22:18:39.943Z,7.10
2019-03-04T22:21:16.698Z,7.10
2019-03-04T22:23:41.993Z,7.00
2019-03-04T22:26:15.531Z,7.00
2019-03-04T22:28:45.691Z,7.00
2019-03-04T22:31:16.298Z,7.00
2019-03-04T22:33:49.040Z,7.00
2019-03-04T22:36:18.669Z,7.00
2019-03-04T22:39:02.635Z,7.10
2019-03-04T22:41:36.825Z,7.00
2019-03-04T22:44:07.841Z,7.00
2019-03-04T22:46:37.087Z,7.00
2019-03-04T22:49:29.117Z,7.00
2019-03-04T22:52:00.798Z,7.00
2019-03-04T22:54:41.696Z,7.00
2019-03-04T22:57:11.632Z,7.10
2019-03-04T22:59:44.370Z,7.00
2019-03-04T23:02:18.085Z,7.00
2019-03-04T23:05:02.950Z,7.00
2019-03-04T23:07:43.839Z,6.90
2019-03-04T23:10:30.160Z,6.90
2019-03-04T23:13:10.647Z,6.90
2019-03-04T23:15:40.202Z,6.80
2019-03-04T23:18:09.544Z,6.90
2019-03-04T23:20:42.461Z,6.80
2019-03-04T23:23:11.863Z,6.80
2019-03-04T23:25:42.327Z,6.80
2019-03-04T23:28:11.713Z,6.70
2019-03-04T23:30:41.104Z,6.70
2019-03-04T23:33:10.580Z,6.70
2019-03-04T23:35:40.360Z,6.70
2019-03-04T23:38:09.679Z,6.60
2019-03-04T23:40:38.922Z,6.60
2019-03-04T23:43:09.389Z,6.60
2019-03-04T23:45:41.011Z,6.70
2019-03-04T23:48:10.409Z,6.70
2019-03-04T23:50:41.658Z,6.80
2019-03-04T23:53:10.900Z,6.80
2019-03-04T23:55:40.175Z,6.80
2019-03-04T23:58:09.570Z,6.80
